createdAt,value
2017-12-23T00:01:59.262Z,102726.29
2017-12-23T00:04:26.789Z,102716.09
2017-12-23T00:06:54.313Z,102717.42
2017-12-23T00:09:21.838Z,102720.03
2017-12-23T00:11:49.358Z,102711.25
2017-12-23T00:14:16.879Z,102706.82
2017-12-23T00:16:45.412Z,102694.41
2017-12-23T00:19:12.925Z,102701.50
2017-12-23T00:21:40.447Z,102694.31
2017-12-23T00:24:07.967Z,102688.59
2017-12-23T00:26:35.493Z,102678.80
2017-12-23T00:29:03.005Z,102678.84
2017-12-23T00:31:30.523Z,102664.66
2017-12-23T00:33:58.054Z,102659.30
2017-12-23T00:36:25.595Z,102667.31
2017-12-23T00:38:53.147Z,102662.44
2017-12-23T00:41:20.681Z,102661.14
2017-12-23T00:43:48.195Z,102657.52
2017-12-23T00:46:15.725Z,102650.42
2017-12-23T00:48:43.245Z,102662.36
2017-12-23T00:51:10.757Z,102665.06
2017-12-23T00:53:38.283Z,102666.39
2017-12-23T00:56:05.816Z,102656.59
2017-12-23T00:58:33.326Z,102658.80
2017-12-23T01:01:00.857Z,102657.11
2017-12-23T01:03:28.391Z,102641.59
2017-12-23T01:05:55.906Z,102633.98
2017-12-23T01:08:23.438Z,102621.16
2017-12-23T01:10:50.959Z,102610.56
2017-12-23T01:13:18.486Z,102612.78
2017-12-23T01:15:46.024Z,102604.76
2017-12-23T01:18:13.545Z,102606.98
2017-12-23T01:20:41.071Z,102598.55
2017-12-23T01:23:08.590Z,102606.09
2017-12-23T01:25:36.100Z,102612.33
2017-12-23T01:28:03.666Z,102610.52
2017-12-23T01:30:31.167Z,102604.35
2017-12-23T01:32:58.681Z,102598.63
2017-12-23T01:35:26.199Z,102590.13
2017-12-23T01:37:53.720Z,102582.59
2017-12-23T01:40:21.246Z,102574.16
2017-12-23T01:42:48.776Z,102575.53
2017-12-23T01:45:16.296Z,102570.17
2017-12-23T01:47:44.625Z,102573.76
2017-12-23T01:50:12.145Z,102579.89
2017-12-23T01:52:39.678Z,102579.52
2017-12-23T01:55:07.197Z,102575.45
2017-12-23T01:57:34.718Z,102565.33
2017-12-23T02:00:02.246Z,102565.74
2017-12-23T02:02:29.771Z,102564.00
2017-12-23T02:04:57.297Z,102544.52
2017-12-23T02:07:24.821Z,102548.06
2017-12-23T02:09:52.338Z,102546.67
2017-12-23T02:12:19.857Z,102554.28
2017-12-23T02:14:47.373Z,102552.95
2017-12-23T02:17:14.895Z,102553.36
2017-12-23T02:19:42.413Z,102545.00
2017-12-23T02:22:09.932Z,102538.31
2017-12-23T02:24:37.459Z,102543.16
2017-12-23T02:27:04.984Z,102541.83
2017-12-23T02:29:32.520Z,102529.86
2017-12-23T02:32:00.045Z,102514.34
2017-12-23T02:34:27.584Z,102524.95
2017-12-23T02:36:55.106Z,102521.87
2017-12-23T02:39:22.638Z,102510.80
2017-12-23T02:41:50.165Z,102509.43
2017-12-23T02:44:17.714Z,102497.02
2017-12-23T02:46:45.242Z,102497.47
2017-12-23T02:49:12.769Z,102489.92
2017-12-23T02:51:40.297Z,102493.89
2017-12-23T02:54:07.822Z,102500.95
2017-12-23T02:56:35.328Z,102499.65
2017-12-23T02:59:02.858Z,102514.66
2017-12-23T03:01:30.377Z,102504.43
2017-12-23T03:03:57.894Z,102506.64
2017-12-23T03:06:25.413Z,102501.30
2017-12-23T03:08:52.929Z,102507.53
2017-12-23T03:11:20.451Z,102504.84
2017-12-23T03:13:47.974Z,102497.72
2017-12-23T03:16:15.481Z,102491.98
2017-12-23T03:18:43.000Z,102494.61
2017-12-23T03:21:10.521Z,102499.52
2017-12-23T03:23:38.044Z,102497.75
2017-12-23T03:26:05.577Z,102500.34
2017-12-23T03:28:33.093Z,102495.98
2017-12-23T03:31:00.622Z,102498.60
2017-12-23T03:33:28.162Z,102485.75
2017-12-23T03:35:55.687Z,102484.48
2017-12-23T03:38:23.200Z,102483.59
2017-12-23T03:40:50.729Z,102478.69
2017-12-23T03:43:18.249Z,102476.03
2017-12-23T03:45:45.777Z,102460.52
2017-12-23T03:48:13.296Z,102451.18
2017-12-23T03:50:40.836Z,102437.44
2017-12-23T03:53:08.367Z,102429.46
2017-12-23T03:55:35.924Z,102426.39
2017-12-23T03:58:03.445Z,102415.31
2017-12-23T04:00:30.956Z,102415.75
2017-12-23T04:02:58.473Z,102418.80
2017-12-23T04:05:25.987Z,102419.27
2017-12-23T04:07:53.518Z,102417.52
2017-12-23T04:10:21.044Z,102425.50
2017-12-23T04:12:50.981Z,102420.61
2017-12-23T04:15:18.493Z,102413.09
2017-12-23T04:17:45.995Z,102406.00
2017-12-23T04:20:13.512Z,102405.09
2017-12-23T04:22:41.026Z,102411.23
2017-12-23T04:25:08.541Z,102412.18
2017-12-23T04:27:36.071Z,102405.12
2017-12-23T04:30:03.596Z,102403.79
2017-12-23T04:32:31.120Z,102405.09
2017-12-23T04:34:58.651Z,102401.98
2017-12-23T04:37:26.181Z,102404.20
2017-12-23T04:39:53.701Z,102396.67
2017-12-23T04:42:21.222Z,102390.44
2017-12-23T04:44:48.741Z,102395.34
2017-12-23T04:47:16.286Z,102385.09
2017-12-23T04:49:43.809Z,102383.38
2017-12-23T04:52:11.316Z,102376.75
2017-12-23T04:54:38.837Z,102373.60
2017-12-23T04:57:06.357Z,102373.59
2017-12-23T04:59:33.878Z,102360.34
2017-12-23T05:02:01.402Z,102358.09
2017-12-23T05:04:28.909Z,102348.78
2017-12-23T05:06:56.437Z,102354.12
2017-12-23T05:09:23.945Z,102362.94
2017-12-23T05:11:51.473Z,102351.00
2017-12-23T05:14:18.995Z,102347.87
2017-12-23T05:16:46.530Z,102339.92
2017-12-23T05:19:14.050Z,102339.50
2017-12-23T05:21:41.598Z,102338.59
2017-12-23T05:24:09.122Z,102334.13
2017-12-23T05:26:36.641Z,102343.47
2017-12-23T05:29:04.161Z,102334.59
2017-12-23T05:31:31.672Z,102343.91
2017-12-23T05:33:59.197Z,102350.95
2017-12-23T05:36:26.705Z,102338.58
2017-12-23T05:38:54.229Z,102343.44
2017-12-23T05:41:21.752Z,102342.08
2017-12-23T05:43:49.266Z,102343.88
2017-12-23T05:46:16.788Z,102343.86
2017-12-23T05:48:44.315Z,102345.16
2017-12-23T05:51:11.838Z,102329.23
2017-12-23T05:53:39.370Z,102323.02
2017-12-23T05:56:06.899Z,102316.85
2017-12-23T05:58:34.423Z,102312.84
2017-12-23T06:01:01.942Z,102309.32
2017-12-23T06:03:29.475Z,102319.53
2017-12-23T06:05:57.006Z,102318.13
2017-12-23T06:08:24.524Z,102307.14
2017-12-23T06:10:52.042Z,102296.93
2017-12-23T06:13:19.570Z,102285.44
2017-12-23T06:15:47.098Z,102277.46
2017-12-23T06:18:14.605Z,102265.89
2017-12-23T06:20:42.120Z,102261.08
2017-12-23T06:23:09.644Z,102258.39
2017-12-23T06:25:37.166Z,102245.97
2017-12-23T06:28:04.689Z,102249.11
2017-12-23T06:30:32.209Z,102243.77
2017-12-23T06:32:59.743Z,102250.86
2017-12-23T06:35:27.268Z,102238.47
2017-12-23T06:37:54.797Z,102236.71
2017-12-23T06:40:22.331Z,102226.06
2017-12-23T06:42:49.851Z,102214.55
2017-12-23T06:45:17.376Z,102211.91
2017-12-23T06:47:44.910Z,102211.00
2017-12-23T06:50:12.421Z,102213.24
2017-12-23T06:52:39.953Z,102207.91
2017-12-23T06:55:07.468Z,102208.39
2017-12-23T06:57:34.999Z,102207.95
2017-12-23T07:00:02.531Z,102211.95
2017-12-23T07:02:30.061Z,102209.71
2017-12-23T07:04:57.583Z,102211.95
2017-12-23T07:07:25.115Z,102203.54
2017-12-23T07:09:52.637Z,102195.11
2017-12-23T07:12:20.158Z,102195.99
2017-12-23T07:14:47.690Z,102205.33
2017-12-23T07:17:15.213Z,102190.25
2017-12-23T07:19:42.740Z,102188.50
2017-12-23T07:22:10.274Z,102192.51
2017-12-23T07:24:37.795Z,102190.29
2017-12-23T07:27:05.314Z,102188.06
2017-12-23T07:29:32.860Z,102182.77
2017-12-23T07:32:00.409Z,102179.23
2017-12-23T07:34:27.929Z,102179.68
2017-12-23T07:36:55.449Z,102177.03
2017-12-23T07:39:23.015Z,102181.01
2017-12-23T07:41:50.550Z,102176.13
2017-12-23T07:44:18.072Z,102172.13
2017-12-23T07:46:45.590Z,102165.02
2017-12-23T07:49:13.120Z,102158.83
2017-12-23T07:51:40.641Z,102155.71
2017-12-23T07:54:08.172Z,102142.41
2017-12-23T07:56:35.697Z,102141.94
2017-12-23T07:59:03.213Z,102137.06
2017-12-23T08:01:30.740Z,102134.83
2017-12-23T08:03:58.270Z,102137.05
2017-12-23T08:06:25.806Z,102114.84
2017-12-23T08:08:53.324Z,102126.80
2017-12-23T08:11:20.848Z,102132.13
2017-12-23T08:13:48.407Z,102125.47
2017-12-23T08:16:15.928Z,102118.80
2017-12-23T08:18:43.463Z,102103.25
2017-12-23T08:21:10.996Z,102117.46
2017-12-23T08:23:38.512Z,102115.19
2017-12-23T08:26:06.035Z,102113.38
2017-12-23T08:28:33.571Z,102111.48
2017-12-23T08:31:01.096Z,102111.91
2017-12-23T08:33:28.618Z,102114.19
2017-12-23T08:35:56.151Z,102104.24
2017-12-23T08:38:23.674Z,102110.90
2017-12-23T08:40:51.204Z,102104.61
2017-12-23T08:43:18.720Z,102106.52
2017-12-23T08:45:46.250Z,102115.91
2017-12-23T08:48:13.769Z,102111.03
2017-12-23T08:50:41.308Z,102100.37
2017-12-23T08:53:08.830Z,102087.88
2017-12-23T08:55:36.351Z,102081.63
2017-12-23T08:58:03.871Z,102095.44
2017-12-23T09:00:31.387Z,102092.73
2017-12-23T09:02:58.905Z,102091.88
2017-12-23T09:05:26.434Z,102083.88
2017-12-23T09:07:53.950Z,102102.55
2017-12-23T09:10:21.531Z,102111.88
2017-12-23T09:12:49.024Z,102114.56
2017-12-23T09:15:16.554Z,102112.78
2017-12-23T09:17:44.065Z,102119.02
2017-12-23T09:20:11.582Z,102137.16
2017-12-23T09:22:39.092Z,102119.88
2017-12-23T09:25:06.601Z,102132.30
2017-12-23T09:27:34.117Z,102125.58
2017-12-23T09:30:01.649Z,102133.62
2017-12-23T09:32:29.181Z,102130.05
2017-12-23T09:34:56.697Z,102126.48
2017-12-23T09:37:24.223Z,102124.23
2017-12-23T09:39:51.761Z,102138.03
2017-12-23T09:42:19.274Z,102121.09
2017-12-23T09:44:46.911Z,102117.58
2017-12-23T09:47:14.425Z,102106.45
2017-12-23T09:49:41.953Z,102101.98
2017-12-23T09:52:09.482Z,102100.20
2017-12-23T09:54:37.005Z,102100.59
2017-12-23T09:57:04.529Z,102094.82
2017-12-23T09:59:32.050Z,102093.48
2017-12-23T10:01:59.592Z,102093.86
2017-12-23T10:04:27.122Z,102090.20
2017-12-23T10:06:54.647Z,102093.38
2017-12-23T10:09:22.167Z,102075.14
2017-12-23T10:11:49.684Z,102069.72
2017-12-23T10:14:17.203Z,102069.31
2017-12-23T10:16:44.738Z,102061.35
2017-12-23T10:19:12.261Z,102070.16
2017-12-23T10:21:39.781Z,102071.48
2017-12-23T10:24:07.301Z,102053.28
2017-12-23T10:26:35.277Z,102055.03
2017-12-23T10:29:02.814Z,102058.06
2017-12-23T10:31:30.344Z,102059.39
2017-12-23T10:33:57.863Z,102045.11
2017-12-23T10:36:25.373Z,102039.25
2017-12-23T10:38:52.910Z,102039.75
2017-12-23T10:41:20.421Z,102038.28
2017-12-23T10:43:47.943Z,102039.59
2017-12-23T10:46:15.461Z,102031.98
2017-12-23T10:48:42.989Z,102035.57
2017-12-23T10:51:10.517Z,102033.29
2017-12-23T10:53:38.025Z,102032.46
2017-12-23T10:56:05.544Z,102035.48
2017-12-23T10:58:33.061Z,102034.11
2017-12-23T11:01:00.574Z,102025.63
2017-12-23T11:03:28.094Z,102012.58
2017-12-23T11:05:55.606Z,101990.33
2017-12-23T11:08:23.113Z,102000.98
2017-12-23T11:10:50.625Z,102002.73
2017-12-23T11:13:18.129Z,102007.62
2017-12-23T11:15:45.642Z,102005.73
2017-12-23T11:18:13.160Z,101979.00
2017-12-23T11:20:40.663Z,101966.04
2017-12-23T11:23:08.280Z,101953.19
2017-12-23T11:25:35.785Z,101961.02
2017-12-23T11:28:03.292Z,101948.59
2017-12-23T11:30:30.816Z,101947.12
2017-12-23T11:32:58.322Z,101934.70
2017-12-23T11:35:25.824Z,101929.16
2017-12-23T11:37:53.338Z,101912.69
2017-12-23T11:40:20.850Z,101918.80
2017-12-23T11:42:48.366Z,101905.38
2017-12-23T11:45:15.891Z,101900.65
2017-12-23T11:47:43.410Z,101894.44
2017-12-23T11:50:11.038Z,101911.84
2017-12-23T11:52:38.568Z,101902.00
2017-12-23T11:55:06.077Z,101907.30
2017-12-23T11:57:33.587Z,101914.89
2017-12-23T12:00:01.127Z,101894.37
2017-12-23T12:02:28.643Z,101875.69
2017-12-23T12:04:56.162Z,101878.92
2017-12-23T12:07:23.754Z,101874.35
2017-12-23T12:09:51.415Z,101867.23
2017-12-23T12:12:18.947Z,101873.95
2017-12-23T12:14:46.464Z,101857.35
2017-12-23T12:17:13.992Z,101848.44
2017-12-23T12:19:41.500Z,101861.56
2017-12-23T12:22:09.005Z,101857.17
2017-12-23T12:24:36.518Z,101855.39
2017-12-23T12:27:04.039Z,101856.27
2017-12-23T12:29:31.691Z,101841.13
2017-12-23T12:31:59.220Z,101848.22
2017-12-23T12:34:26.755Z,101849.94
2017-12-23T12:36:54.267Z,101841.61
2017-12-23T12:39:21.827Z,101838.44
2017-12-23T12:41:49.338Z,101821.52
2017-12-23T12:44:16.896Z,101837.13
2017-12-23T12:46:44.496Z,101842.47
2017-12-23T12:49:12.067Z,101832.03
2017-12-23T12:51:39.579Z,101828.58
2017-12-23T12:54:07.090Z,101817.43
2017-12-23T12:56:34.612Z,101821.82
2017-12-23T12:59:02.148Z,101825.37
2017-12-23T13:01:29.656Z,101809.28
2017-12-23T13:03:57.187Z,101814.64
2017-12-23T13:06:24.701Z,101799.08
2017-12-23T13:08:52.340Z,101807.11
2017-12-23T13:11:19.848Z,101793.69
2017-12-23T13:13:47.366Z,101809.75
2017-12-23T13:16:14.884Z,101803.04
2017-12-23T13:18:42.396Z,101812.31
2017-12-23T13:21:09.931Z,101800.24
2017-12-23T13:23:37.484Z,101792.24
2017-12-23T13:26:05.020Z,101783.76
2017-12-23T13:28:32.532Z,101782.77
2017-12-23T13:31:00.053Z,101783.69
2017-12-23T13:33:27.566Z,101795.31
2017-12-23T13:35:55.078Z,101796.89
2017-12-23T13:38:22.647Z,101797.83
2017-12-23T13:40:50.161Z,101792.87
2017-12-23T13:43:17.669Z,101794.15
2017-12-23T13:45:45.220Z,101785.38
2017-12-23T13:48:12.724Z,101779.00
2017-12-23T13:50:40.238Z,101796.34
2017-12-23T13:53:07.737Z,101800.90
2017-12-23T13:55:35.245Z,101793.70
2017-12-23T13:58:02.810Z,101785.57
2017-12-23T14:00:30.316Z,101770.92
2017-12-23T14:02:57.925Z,101785.57
2017-12-23T14:05:25.435Z,101779.78
2017-12-23T14:07:52.944Z,101773.49
2017-12-23T14:10:20.522Z,101764.22
2017-12-23T14:12:48.037Z,101773.05
2017-12-23T14:15:15.629Z,101766.84
2017-12-23T14:17:43.149Z,101785.83
2017-12-23T14:20:10.660Z,101791.78
2017-12-23T14:22:38.181Z,101780.23
2017-12-23T14:25:05.765Z,101781.45
2017-12-23T14:27:33.345Z,101787.27
2017-12-23T14:30:00.858Z,101770.75
2017-12-23T14:32:28.389Z,101776.18
2017-12-23T14:34:56.001Z,101771.20
2017-12-23T14:37:23.506Z,101766.41
2017-12-23T14:39:51.017Z,101766.36
2017-12-23T14:42:18.584Z,101767.11
2017-12-23T14:44:46.112Z,101758.22
2017-12-23T14:47:13.711Z,101767.14
2017-12-23T14:49:41.265Z,101759.98
2017-12-23T14:52:08.777Z,101760.48
2017-12-23T14:54:36.330Z,101762.66
2017-12-23T14:57:03.928Z,101769.37
2017-12-23T14:59:32.158Z,101770.06
2017-12-23T15:01:59.792Z,101756.00
2017-12-23T15:04:27.308Z,101767.48
2017-12-23T15:06:54.836Z,101767.09
2017-12-23T15:09:22.349Z,101761.75
2017-12-23T15:11:49.917Z,101772.45
2017-12-23T15:14:17.492Z,101768.84
2017-12-23T15:16:45.171Z,101776.94
2017-12-23T15:19:12.684Z,101775.58
2017-12-23T15:21:40.232Z,101776.82
2017-12-23T15:24:07.760Z,101771.49
2017-12-23T15:26:35.279Z,101782.61
2017-12-23T15:29:02.846Z,101783.44
2017-12-23T15:31:30.360Z,101778.64
2017-12-23T15:33:57.887Z,101781.78
2017-12-23T15:36:25.441Z,101784.39
2017-12-23T15:38:52.958Z,101774.10
2017-12-23T15:41:20.581Z,101764.34
2017-12-23T15:43:48.110Z,101786.14
2017-12-23T15:46:15.634Z,101776.00
2017-12-23T15:48:43.150Z,101763.92
2017-12-23T15:51:10.892Z,101744.77
2017-12-23T15:53:38.763Z,101751.89
2017-12-23T15:56:06.610Z,101755.36
2017-12-23T15:58:34.344Z,101754.42
2017-12-23T16:01:02.159Z,101766.97
2017-12-23T16:03:30.024Z,101757.09
2017-12-23T16:05:57.668Z,101764.66
2017-12-23T16:08:25.560Z,101761.97
2017-12-23T16:10:53.524Z,101763.79
2017-12-23T16:13:21.365Z,101765.10
2017-12-23T16:15:49.130Z,101757.08
2017-12-23T16:18:16.665Z,101749.34
2017-12-23T16:20:44.188Z,101741.83
2017-12-23T16:23:11.714Z,101737.27
2017-12-23T16:25:39.312Z,101722.90
2017-12-23T16:28:06.834Z,101729.73
2017-12-23T16:30:34.413Z,101724.41
2017-12-23T16:33:01.941Z,101742.63
2017-12-23T16:35:29.617Z,101760.96
2017-12-23T16:37:57.120Z,101748.05
2017-12-23T16:40:24.652Z,101723.91
2017-12-23T16:42:52.180Z,101721.16
2017-12-23T16:45:20.600Z,101737.70
2017-12-23T16:47:48.138Z,101731.50
2017-12-23T16:50:16.615Z,101720.77
2017-12-23T16:52:44.136Z,101730.55
2017-12-23T16:55:12.481Z,101723.41
2017-12-23T16:57:41.395Z,101737.73
2017-12-23T17:00:08.990Z,101738.18
2017-12-23T17:02:36.533Z,101745.73
2017-12-23T17:05:04.055Z,101746.27
2017-12-23T17:07:31.680Z,101732.38
2017-12-23T17:09:59.267Z,101731.06
2017-12-23T17:12:27.766Z,101732.81
2017-12-23T17:14:55.311Z,101726.97
2017-12-23T17:17:22.853Z,101729.23
2017-12-23T17:19:50.372Z,101727.39
2017-12-23T17:22:17.914Z,101731.49
2017-12-23T17:24:45.521Z,101735.51
2017-12-23T17:27:13.178Z,101735.09
2017-12-23T17:29:52.611Z,101730.98
2017-12-23T17:32:20.128Z,101727.45
2017-12-23T17:34:47.677Z,101714.08
2017-12-23T17:37:15.199Z,101712.83
2017-12-23T17:39:43.373Z,101711.02
2017-12-23T17:42:11.065Z,101715.86
2017-12-23T17:44:38.713Z,101703.03
2017-12-23T17:47:06.223Z,101700.88
2017-12-23T17:49:33.742Z,101699.48
2017-12-23T17:52:01.263Z,101711.95
2017-12-23T17:54:28.783Z,101708.05
2017-12-23T17:56:56.328Z,101704.48
2017-12-23T17:59:24.069Z,101714.69
2017-12-23T18:01:51.820Z,101715.52
2017-12-23T18:04:19.397Z,101713.67
2017-12-23T18:06:46.956Z,101729.80
2017-12-23T18:09:14.473Z,101713.39
2017-12-23T18:11:42.037Z,101720.22
2017-12-23T18:14:09.548Z,101712.12
2017-12-23T18:16:37.084Z,101713.95
2017-12-23T18:19:04.614Z,101715.72
2017-12-23T18:21:32.129Z,101714.75
2017-12-23T18:23:59.655Z,101709.45
2017-12-23T18:26:27.754Z,101708.98
2017-12-23T18:28:55.268Z,101703.20
2017-12-23T18:31:22.785Z,101712.63
2017-12-23T18:33:50.305Z,101711.47
2017-12-23T18:36:17.822Z,101708.62
2017-12-23T18:38:45.336Z,101705.56
2017-12-23T18:41:12.858Z,101708.80
2017-12-23T18:43:40.376Z,101708.31
2017-12-23T18:46:07.891Z,101709.23
2017-12-23T18:48:35.411Z,101708.80
2017-12-23T18:51:02.932Z,101705.93
2017-12-23T18:53:30.470Z,101704.69
2017-12-23T18:55:57.992Z,101708.27
2017-12-23T18:58:25.506Z,101706.48
2017-12-23T19:00:53.022Z,101703.76
2017-12-23T19:03:21.746Z,101709.62
2017-12-23T19:05:49.256Z,101702.39
2017-12-23T19:08:16.784Z,101700.11
2017-12-23T19:10:44.317Z,101717.02
2017-12-23T19:13:11.880Z,101709.34
2017-12-23T19:15:39.573Z,101714.69
2017-12-23T19:18:07.242Z,101707.98
2017-12-23T19:20:34.836Z,101707.94
2017-12-23T19:23:02.427Z,101699.45
2017-12-23T19:25:29.974Z,101697.14
2017-12-23T19:27:57.493Z,101703.77
2017-12-23T19:30:25.000Z,101708.31
2017-12-23T19:32:52.514Z,101710.89
2017-12-23T19:35:20.045Z,101702.34
2017-12-23T19:37:47.596Z,101701.86
2017-12-23T19:40:15.144Z,101689.38
2017-12-23T19:42:42.796Z,101686.64
2017-12-23T19:45:10.368Z,101693.23
2017-12-23T19:47:37.921Z,101685.17
2017-12-23T19:50:05.437Z,101684.73
2017-12-23T19:52:32.945Z,101687.34
2017-12-23T19:55:00.489Z,101697.59
2017-12-23T19:57:28.049Z,101700.70
2017-12-23T19:59:55.821Z,101707.77
2017-12-23T20:02:23.573Z,101705.44
2017-12-23T20:04:51.146Z,101706.34
2017-12-23T20:07:18.703Z,101700.05
2017-12-23T20:09:46.358Z,101692.48
2017-12-23T20:12:13.909Z,101698.19
2017-12-23T20:14:41.420Z,101706.68
2017-12-23T20:17:08.941Z,101703.93
2017-12-23T20:19:36.492Z,101715.05
2017-12-23T20:22:04.077Z,101707.06
2017-12-23T20:24:31.620Z,101710.59
2017-12-23T20:26:59.142Z,101707.42
2017-12-23T20:29:26.749Z,101700.23
2017-12-23T20:31:54.469Z,101712.23
2017-12-23T20:34:22.039Z,101693.12
2017-12-23T20:36:49.558Z,101706.44
2017-12-23T20:39:17.167Z,101696.61
2017-12-23T20:41:44.690Z,101698.37
2017-12-23T20:44:12.214Z,101681.86
2017-12-23T20:46:39.731Z,101689.36
2017-12-23T20:49:07.258Z,101675.00
2017-12-23T20:51:34.803Z,101680.01
2017-12-23T20:54:02.425Z,101677.80
2017-12-23T20:56:29.963Z,101678.20
2017-12-23T20:58:57.526Z,101660.33
2017-12-23T21:01:25.082Z,101666.91
2017-12-23T21:03:52.606Z,101674.20
2017-12-23T21:06:20.128Z,101659.84
2017-12-23T21:08:47.661Z,101664.45
2017-12-23T21:11:15.195Z,101658.98
2017-12-23T21:13:42.809Z,101660.34
2017-12-23T21:16:10.537Z,101666.14
2017-12-23T21:18:38.159Z,101660.34
2017-12-23T21:21:05.720Z,101651.44
2017-12-23T21:23:33.295Z,101659.53
2017-12-23T21:26:00.836Z,101654.20
2017-12-23T21:28:28.367Z,101650.16
2017-12-23T21:30:55.893Z,101654.55
2017-12-23T21:33:23.512Z,101649.12
2017-12-23T21:35:51.048Z,101644.28
2017-12-23T21:38:19.386Z,101636.61
2017-12-23T21:40:46.908Z,101657.23
2017-12-23T21:43:14.542Z,101648.27
2017-12-23T21:45:42.085Z,101645.11
2017-12-23T21:48:09.603Z,101643.28
2017-12-23T21:50:37.200Z,101657.20
2017-12-23T21:53:04.843Z,101651.89
2017-12-23T21:55:32.398Z,101650.46
2017-12-23T21:57:59.917Z,101652.70
2017-12-23T22:00:27.433Z,101639.86
2017-12-23T22:02:55.013Z,101652.03
2017-12-23T22:05:22.556Z,101650.72
2017-12-23T22:07:50.070Z,101643.14
2017-12-23T22:10:17.586Z,101632.95
2017-12-23T22:12:45.140Z,101629.36
2017-12-23T22:15:12.674Z,101626.30
2017-12-23T22:17:40.200Z,101632.52
2017-12-23T22:20:07.713Z,101628.13
2017-12-23T22:22:35.321Z,101643.71
2017-12-23T22:25:02.845Z,101640.12
2017-12-23T22:27:30.370Z,101637.85
2017-12-23T22:29:57.936Z,101639.63
2017-12-23T22:32:25.425Z,101614.19
2017-12-23T22:34:52.982Z,101644.39
2017-12-23T22:37:20.602Z,101623.45
2017-12-23T22:39:48.115Z,101631.44
2017-12-23T22:42:27.705Z,101625.64
2017-12-23T22:44:55.216Z,101618.97
2017-12-23T22:47:22.776Z,101622.13
2017-12-23T22:49:50.312Z,101606.50
2017-12-23T22:52:17.833Z,101610.52
2017-12-23T22:54:45.345Z,101593.55
2017-12-23T22:57:12.886Z,101599.87
2017-12-23T22:59:40.405Z,101598.05
2017-12-23T23:02:08.009Z,101603.06
2017-12-23T23:04:35.713Z,101600.27
2017-12-23T23:07:03.288Z,101590.92
2017-12-23T23:09:30.820Z,101588.15
2017-12-23T23:11:58.332Z,101587.69
2017-12-23T23:14:25.857Z,101578.30
2017-12-23T23:16:53.364Z,101581.38
2017-12-23T23:19:20.881Z,101574.76
2017-12-23T23:21:48.392Z,101578.77
2017-12-23T23:24:15.957Z,101589.51
2017-12-23T23:26:43.494Z,101592.60
2017-12-23T23:29:11.046Z,101597.11
2017-12-23T23:31:38.586Z,101598.73
2017-12-23T23:34:06.096Z,101594.29
2017-12-23T23:36:33.610Z,101601.86
2017-12-23T23:39:01.127Z,101587.20
2017-12-23T23:41:28.650Z,101586.62
2017-12-23T23:43:56.165Z,101572.79
2017-12-23T23:46:23.690Z,101575.87
2017-12-23T23:48:51.269Z,101580.00
2017-12-23T23:51:18.793Z,101579.00
2017-12-23T23:53:46.313Z,101572.30
2017-12-23T23:56:13.830Z,101574.98
2017-12-23T23:58:41.340Z,101558.98
